createdAt,value
2022-08-26T00:02:12.291Z,70.66
2022-08-26T00:04:57.206Z,71.47
2022-08-26T00:07:42.120Z,71.75
2022-08-26T00:10:28.664Z,71.79
2022-08-26T00:13:13.755Z,71.60
2022-08-26T00:15:58.965Z,72.28
2022-08-26T00:18:44.502Z,71.75
2022-08-26T00:21:29.477Z,70.39
2022-08-26T00:24:15.683Z,70.29
2022-08-26T00:27:00.464Z,69.93
2022-08-26T00:29:45.645Z,69.42
2022-08-26T00:32:30.926Z,68.76
2022-08-26T00:35:16.446Z,68.43
2022-08-26T00:38:02.603Z,68.63
2022-08-26T00:40:54.547Z,67.99
2022-08-26T00:43:47.174Z,67.70
2022-08-26T00:46:46.578Z,67.25
2022-08-26T00:49:42.457Z,67.30
2022-08-26T00:52:28.007Z,67.84
2022-08-26T00:55:21.497Z,68.22
2022-08-26T00:58:08.167Z,68.11
2022-08-26T01:00:53.949Z,68.35
2022-08-26T01:03:40.336Z,68.45
2022-08-26T01:06:26.649Z,68.52
2022-08-26T01:09:12.375Z,69.56
2022-08-26T01:12:01.568Z,69.95
2022-08-26T01:14:47.431Z,70.98
2022-08-26T01:17:34.195Z,72.26
2022-08-26T01:20:34.643Z,72.03
2022-08-26T01:23:19.632Z,72.60
2022-08-26T01:26:19.615Z,73.68
2022-08-26T01:29:08.691Z,74.54
2022-08-26T01:31:56.049Z,74.95
2022-08-26T01:34:41.163Z,74.89
2022-08-26T01:37:32.464Z,75.09
2022-08-26T01:40:22.970Z,75.74
2022-08-26T01:43:10.296Z,76.16
2022-08-26T01:45:56.340Z,76.54
2022-08-26T01:48:44.482Z,76.64
2022-08-26T01:51:31.321Z,77.70
2022-08-26T01:54:15.887Z,78.60
2022-08-26T01:57:01.319Z,79.16
2022-08-26T01:59:49.812Z,79.09
2022-08-26T02:02:35.019Z,79.75
2022-08-26T02:05:21.557Z,79.72
2022-08-26T02:08:07.894Z,80.10
2022-08-26T02:10:54.962Z,80.33
2022-08-26T02:13:47.576Z,80.60
2022-08-26T02:16:39.945Z,81.26
2022-08-26T02:19:32.090Z,81.32
2022-08-26T02:22:22.577Z,82.04
2022-08-26T02:25:19.064Z,82.22
2022-08-26T02:28:04.580Z,82.72
2022-08-26T02:30:49.763Z,82.52
2022-08-26T02:33:35.852Z,83.09
2022-08-26T02:36:23.061Z,83.36
2022-08-26T02:39:09.080Z,83.42
2022-08-26T02:41:54.275Z,83.40
2022-08-26T02:44:39.214Z,83.85
2022-08-26T02:47:25.167Z,83.96
2022-08-26T02:50:10.485Z,84.55
2022-08-26T02:52:56.020Z,84.59
2022-08-26T02:55:41.699Z,85.20
2022-08-26T02:58:27.018Z,84.70
2022-08-26T03:01:29.740Z,84.74
2022-08-26T03:04:15.427Z,84.75
2022-08-26T03:07:00.534Z,84.88
2022-08-26T03:09:45.780Z,84.72
2022-08-26T03:12:30.587Z,84.68
2022-08-26T03:15:18.416Z,84.90
2022-08-26T03:18:04.252Z,84.43
2022-08-26T03:20:49.097Z,84.62
2022-08-26T03:23:34.722Z,84.36
2022-08-26T03:26:19.802Z,84.03
2022-08-26T03:29:24.860Z,83.90
2022-08-26T03:32:09.811Z,83.33
2022-08-26T03:34:56.928Z,83.43
2022-08-26T03:37:41.900Z,82.60
2022-08-26T03:40:29.045Z,81.74
2022-08-26T03:43:15.674Z,80.83
2022-08-26T03:46:05.775Z,79.88
2022-08-26T03:48:51.250Z,79.66
2022-08-26T03:51:38.712Z,78.92
2022-08-26T03:54:23.979Z,77.94
2022-08-26T03:57:08.839Z,76.77
2022-08-26T03:59:53.960Z,76.17
2022-08-26T04:02:38.889Z,76.04
2022-08-26T04:05:23.840Z,75.67
2022-08-26T04:08:08.722Z,74.57
2022-08-26T04:10:55.103Z,73.70
2022-08-26T04:13:41.092Z,72.89
2022-08-26T04:16:27.767Z,72.57
2022-08-26T04:19:14.676Z,71.79
2022-08-26T04:22:00.135Z,71.48
2022-08-26T04:24:45.850Z,70.62
2022-08-26T04:27:30.634Z,69.60
2022-08-26T04:30:15.994Z,69.45
2022-08-26T04:33:03.808Z,68.59
2022-08-26T04:36:01.912Z,67.17
2022-08-26T04:38:47.281Z,66.97
2022-08-26T04:41:32.328Z,66.43
2022-08-26T04:44:18.095Z,65.74
2022-08-26T04:47:04.028Z,65.18
2022-08-26T04:49:48.920Z,65.46
2022-08-26T04:52:36.314Z,64.83
2022-08-26T04:55:22.258Z,64.60
2022-08-26T04:58:24.188Z,63.98
2022-08-26T05:01:10.520Z,63.50
2022-08-26T05:03:55.684Z,63.10
2022-08-26T05:06:40.594Z,62.28
2022-08-26T05:09:25.768Z,62.08
2022-08-26T05:12:10.262Z,62.00
2022-08-26T05:14:55.332Z,61.89
2022-08-26T05:17:40.206Z,61.14
2022-08-26T05:20:26.207Z,61.02
2022-08-26T05:23:11.414Z,61.65
2022-08-26T05:25:59.405Z,61.21
2022-08-26T05:28:45.787Z,60.70
2022-08-26T05:31:33.766Z,60.92
2022-08-26T05:34:20.299Z,60.05
2022-08-26T05:37:05.738Z,59.69
2022-08-26T05:39:51.435Z,59.41
2022-08-26T05:42:36.327Z,59.08
2022-08-26T05:45:24.080Z,59.42
2022-08-26T05:48:09.403Z,59.72
2022-08-26T05:50:54.363Z,59.16
2022-08-26T05:53:43.832Z,58.93
2022-08-26T05:56:40.064Z,58.08
2022-08-26T05:59:29.028Z,58.38
2022-08-26T06:02:14.276Z,57.72
2022-08-26T06:04:59.296Z,56.74
2022-08-26T06:08:02.700Z,57.04
2022-08-26T06:10:54.631Z,56.87
2022-08-26T06:13:40.136Z,56.56
2022-08-26T06:16:25.195Z,55.94
2022-08-26T06:21:57.728Z,54.70
2022-08-26T06:25:02.667Z,53.04
2022-08-26T06:27:48.356Z,53.34
2022-08-26T06:30:40.071Z,51.64
2022-08-26T06:33:28.192Z,52.15
2022-08-26T06:36:27.037Z,52.24
2022-08-26T06:39:13.919Z,50.59
2022-08-26T06:42:00.011Z,49.85
2022-08-26T06:44:44.999Z,49.82
2022-08-26T06:47:30.645Z,49.33
2022-08-26T06:50:16.238Z,48.29
2022-08-26T06:53:01.910Z,48.57
2022-08-26T06:55:46.915Z,48.58
2022-08-26T06:58:39.231Z,47.70
2022-08-26T07:01:29.136Z,46.83
2022-08-26T07:04:22.121Z,46.11
2022-08-26T07:07:10.749Z,45.87
2022-08-26T07:09:55.964Z,45.66
2022-08-26T07:12:41.332Z,44.48
2022-08-26T07:15:31.058Z,43.83
2022-08-26T07:18:16.718Z,44.87
2022-08-26T07:21:08.534Z,43.32
2022-08-26T07:23:58.720Z,44.11
2022-08-26T07:26:46.185Z,41.66
2022-08-26T07:29:34.918Z,41.92
2022-08-26T07:32:26.149Z,41.30
2022-08-26T07:35:15.872Z,41.95
2022-08-26T07:38:01.264Z,41.73
2022-08-26T07:40:50.809Z,41.44
2022-08-26T07:43:36.921Z,40.99
2022-08-26T07:46:27.501Z,41.58
2022-08-26T07:49:17.163Z,40.91
2022-08-26T07:52:01.942Z,41.63
2022-08-26T07:54:46.967Z,41.59
2022-08-26T07:57:32.081Z,39.07
2022-08-26T08:00:17.272Z,37.70
2022-08-26T08:03:05.209Z,38.39
2022-08-26T08:05:50.009Z,38.34
2022-08-26T08:08:38.459Z,39.55
2022-08-26T08:11:26.647Z,39.32
2022-08-26T08:14:12.323Z,37.30
2022-08-26T08:16:57.418Z,38.77
2022-08-26T08:19:43.087Z,37.66
2022-08-26T08:22:28.204Z,36.67
2022-08-26T08:25:14.637Z,37.85
2022-08-26T08:28:01.003Z,37.04
2022-08-26T08:30:46.793Z,36.08
2022-08-26T08:33:33.300Z,34.69
2022-08-26T08:36:20.452Z,34.95
2022-08-26T08:39:08.354Z,36.23
2022-08-26T08:42:26.550Z,34.75
2022-08-26T08:45:14.907Z,34.25
2022-08-26T08:48:07.477Z,34.59
2022-08-26T08:50:55.978Z,33.70
2022-08-26T08:53:44.988Z,33.75
2022-08-26T08:56:47.058Z,32.26
2022-08-26T08:59:35.116Z,32.63
2022-08-26T09:02:40.047Z,31.94
2022-08-26T09:05:39.532Z,33.36
2022-08-26T09:08:29.711Z,32.73
2022-08-26T09:11:16.079Z,31.96
2022-08-26T09:14:02.271Z,31.77
2022-08-26T09:17:34.867Z,33.68
2022-08-26T09:20:34.304Z,32.03
2022-08-26T09:23:19.488Z,31.45
2022-08-26T09:26:31.018Z,31.63
2022-08-26T09:29:31.548Z,30.20
2022-08-26T09:32:24.528Z,30.02
2022-08-26T09:35:25.680Z,30.56
2022-08-26T09:38:26.684Z,29.94
2022-08-26T09:41:27.337Z,30.02
2022-08-26T09:44:18.327Z,31.21
2022-08-26T09:47:06.442Z,29.56
2022-08-26T09:50:12.555Z,28.95
2022-08-26T09:53:39.807Z,26.87
2022-08-26T09:56:27.506Z,27.41
2022-08-26T09:59:14.259Z,27.51
2022-08-26T10:02:33.705Z,26.28
2022-08-26T10:05:31.486Z,27.12
2022-08-26T10:08:23.123Z,28.76
2022-08-26T10:11:16.490Z,26.25
2022-08-26T10:14:07.389Z,25.82
2022-08-26T10:17:05.289Z,27.29
2022-08-26T10:20:06.173Z,27.27
2022-08-26T10:23:15.131Z,26.53
2022-08-26T10:26:24.743Z,25.70
2022-08-26T10:29:20.896Z,25.55
2022-08-26T10:32:34.909Z,25.39
2022-08-26T10:35:23.026Z,24.47
2022-08-26T10:38:16.387Z,22.58
2022-08-26T10:41:10.556Z,25.03
2022-08-26T10:44:02.518Z,24.90
2022-08-26T10:46:58.137Z,23.48
2022-08-26T10:49:45.302Z,24.04
2022-08-26T10:52:39.712Z,23.88
2022-08-26T10:55:40.419Z,24.70
2022-08-26T10:58:28.013Z,23.81
2022-08-26T11:01:42.852Z,21.93
2022-08-26T11:04:48.205Z,24.68
2022-08-26T11:07:45.627Z,22.34
2022-08-26T11:10:42.560Z,21.72
2022-08-26T11:13:55.690Z,21.90
2022-08-26T11:16:43.852Z,21.56
2022-08-26T11:19:59.417Z,20.74
2022-08-26T11:22:47.813Z,21.53
2022-08-26T11:25:32.931Z,21.17
2022-08-26T11:28:35.934Z,21.01
2022-08-26T11:31:24.671Z,19.95
2022-08-26T11:34:13.266Z,19.38
2022-08-26T11:36:59.957Z,20.13
2022-08-26T11:39:56.845Z,19.40
2022-08-26T11:42:48.571Z,19.27
2022-08-26T11:45:35.918Z,21.52
2022-08-26T11:48:29.128Z,19.75
2022-08-26T11:51:23.243Z,18.70
2022-08-26T11:54:29.260Z,18.91
2022-08-26T11:57:20.776Z,19.45
2022-08-26T12:00:16.881Z,19.08
2022-08-26T12:03:07.737Z,18.53
2022-08-26T12:05:53.788Z,18.03
2022-08-26T12:08:43.283Z,19.51
2022-08-26T12:11:32.279Z,18.23
2022-08-26T12:14:27.673Z,17.82
2022-08-26T12:17:19.291Z,19.48
2022-08-26T12:20:17.605Z,17.04
2022-08-26T12:23:04.496Z,18.39
2022-08-26T12:26:01.907Z,19.38
2022-08-26T12:28:51.306Z,19.03
2022-08-26T12:31:39.457Z,17.92
2022-08-26T12:34:27.732Z,17.44
2022-08-26T12:37:14.950Z,17.33
2022-08-26T12:40:30.890Z,19.25
2022-08-26T12:43:38.747Z,19.01
2022-08-26T12:46:27.874Z,16.82
2022-08-26T12:49:17.861Z,17.75
2022-08-26T12:52:04.822Z,16.23
2022-08-26T12:54:59.830Z,17.59
2022-08-26T12:57:44.428Z,18.89
2022-08-26T13:00:38.892Z,17.26
2022-08-26T13:03:27.168Z,16.33
2022-08-26T13:06:30.717Z,19.04
2022-08-26T13:09:18.287Z,16.98
2022-08-26T13:12:03.661Z,15.86
2022-08-26T13:14:49.970Z,16.10
2022-08-26T13:17:35.380Z,17.25
2022-08-26T13:20:20.307Z,16.66
2022-08-26T13:23:06.203Z,16.77
2022-08-26T13:25:51.574Z,17.05
2022-08-26T13:28:37.381Z,15.83
2022-08-26T13:31:22.781Z,15.55
2022-08-26T13:34:18.917Z,17.14
2022-08-26T13:37:04.142Z,17.32
2022-08-26T13:39:50.566Z,17.07
2022-08-26T13:42:35.673Z,18.21
2022-08-26T13:45:20.888Z,18.28
2022-08-26T13:48:07.209Z,17.82
2022-08-26T13:50:53.531Z,16.91
2022-08-26T13:53:38.530Z,17.41
2022-08-26T13:56:29.039Z,16.05
2022-08-26T13:59:14.354Z,16.61
2022-08-26T14:02:02.160Z,16.85
2022-08-26T14:04:47.113Z,16.63
2022-08-26T14:07:32.263Z,17.31
2022-08-26T14:10:17.293Z,16.56
2022-08-26T14:13:03.387Z,17.02
2022-08-26T14:15:49.997Z,17.15
2022-08-26T14:18:42.547Z,16.01
2022-08-26T14:21:31.331Z,15.30
2022-08-26T14:24:16.053Z,15.83
2022-08-26T14:27:01.008Z,17.03
2022-08-26T14:29:45.965Z,16.99
2022-08-26T14:32:31.666Z,17.08
2022-08-26T14:35:19.738Z,16.86
2022-08-26T14:38:04.533Z,18.04
2022-08-26T14:40:49.555Z,17.75
2022-08-26T14:43:34.738Z,18.75
2022-08-26T14:46:19.813Z,17.89
2022-08-26T14:49:08.521Z,18.36
2022-08-26T14:51:55.798Z,18.09
2022-08-26T14:54:40.725Z,18.66
2022-08-26T14:57:25.677Z,19.82
2022-08-26T15:00:11.420Z,18.23
2022-08-26T15:02:56.645Z,18.82
2022-08-26T15:05:48.056Z,17.33
2022-08-26T15:08:36.023Z,17.06
2022-08-26T15:11:21.863Z,17.89
2022-08-26T15:14:07.342Z,17.25
2022-08-26T15:16:55.368Z,18.86
2022-08-26T15:19:40.665Z,17.88
2022-08-26T15:22:25.671Z,17.72
2022-08-26T15:25:14.830Z,18.49
2022-08-26T15:27:59.864Z,18.70
2022-08-26T15:30:44.828Z,18.67
2022-08-26T15:33:30.206Z,19.16
2022-08-26T15:36:15.199Z,18.83
2022-08-26T15:39:00.233Z,18.96
2022-08-26T15:41:45.863Z,19.44
2022-08-26T15:44:31.089Z,20.15
2022-08-26T15:47:15.777Z,20.84
2022-08-26T15:50:00.758Z,21.28
2022-08-26T15:52:47.274Z,21.52
2022-08-26T15:55:32.230Z,21.67
2022-08-26T15:58:17.282Z,21.72
2022-08-26T16:01:02.526Z,21.73
2022-08-26T16:03:48.031Z,22.56
2022-08-26T16:06:35.732Z,23.51
2022-08-26T16:09:24.344Z,24.29
2022-08-26T16:12:09.717Z,25.13
2022-08-26T16:14:55.029Z,26.18
2022-08-26T16:17:40.122Z,26.16
2022-08-26T16:20:25.909Z,26.54
2022-08-26T16:23:10.552Z,27.00
2022-08-26T16:25:56.438Z,28.86
2022-08-26T16:28:41.128Z,29.83
2022-08-26T16:31:28.995Z,31.14
2022-08-26T16:34:13.777Z,32.02
2022-08-26T16:36:59.908Z,33.01
2022-08-26T16:39:45.241Z,33.78
2022-08-26T16:42:30.517Z,35.56
2022-08-26T16:45:15.470Z,36.77
2022-08-26T16:48:00.132Z,39.23
2022-08-26T16:50:45.251Z,40.23
2022-08-26T16:53:33.071Z,41.09
2022-08-26T16:56:21.182Z,41.80
2022-08-26T16:59:09.936Z,42.74
2022-08-26T17:01:54.910Z,43.37
2022-08-26T17:04:40.573Z,44.44
2022-08-26T17:07:25.921Z,44.85
2022-08-26T17:10:10.725Z,44.86
2022-08-26T17:12:56.316Z,45.75
2022-08-26T17:15:53.383Z,46.50
2022-08-26T17:18:40.551Z,47.84
2022-08-26T17:21:27.701Z,45.61
2022-08-26T17:24:12.873Z,46.42
2022-08-26T17:26:58.179Z,46.72
2022-08-26T17:29:43.982Z,47.77
2022-08-26T17:32:29.211Z,47.92
2022-08-26T17:35:15.510Z,47.56
2022-08-26T17:38:00.565Z,46.16
2022-08-26T17:40:45.398Z,47.03
2022-08-26T17:43:30.800Z,43.68
2022-08-26T17:46:15.702Z,44.13
2022-08-26T17:49:01.274Z,43.38
2022-08-26T17:51:46.131Z,42.96
2022-08-26T17:54:31.214Z,42.51
2022-08-26T17:57:16.607Z,42.49
2022-08-26T18:00:06.698Z,42.43
2022-08-26T18:02:54.038Z,42.81
2022-08-26T18:05:39.535Z,43.14
2022-08-26T18:08:24.678Z,42.49
2022-08-26T18:11:13.266Z,43.24
2022-08-26T18:13:59.664Z,44.72
2022-08-26T18:16:44.328Z,44.64
2022-08-26T18:19:29.882Z,45.02
2022-08-26T18:22:15.770Z,45.32
2022-08-26T18:25:00.895Z,44.61
2022-08-26T18:27:45.867Z,46.19
2022-08-26T18:30:30.845Z,46.29
2022-08-26T18:33:16.647Z,45.92
2022-08-26T18:36:02.025Z,46.49
2022-08-26T18:38:48.027Z,47.82
2022-08-26T18:41:42.781Z,47.62
2022-08-26T18:44:27.425Z,47.91
2022-08-26T18:47:12.554Z,47.03
2022-08-26T18:49:57.582Z,47.29
2022-08-26T18:52:43.121Z,48.17
2022-08-26T18:55:27.869Z,48.37
2022-08-26T18:58:12.903Z,48.76
2022-08-26T19:00:57.792Z,50.61
2022-08-26T19:03:43.068Z,49.23
2022-08-26T19:06:31.014Z,50.80
2022-08-26T19:09:18.169Z,50.20
2022-08-26T19:12:04.160Z,50.62
2022-08-26T19:14:49.903Z,50.25
2022-08-26T19:17:34.830Z,50.35
2022-08-26T19:20:19.601Z,50.78
2022-08-26T19:23:10.595Z,52.36
2022-08-26T19:26:07.664Z,53.75
2022-08-26T19:28:53.160Z,53.83
2022-08-26T19:31:38.199Z,53.35
2022-08-26T19:34:23.544Z,53.94
2022-08-26T19:37:08.182Z,53.70
2022-08-26T19:39:53.430Z,53.61
2022-08-26T19:42:38.453Z,55.24
2022-08-26T19:45:25.227Z,54.87
2022-08-26T19:48:10.709Z,55.23
2022-08-26T19:50:55.576Z,54.43
2022-08-26T19:53:42.930Z,54.52
2022-08-26T19:56:28.200Z,54.88
2022-08-26T19:59:13.275Z,55.50
2022-08-26T20:02:01.446Z,54.34
2022-08-26T20:04:47.056Z,53.90
2022-08-26T20:07:32.380Z,53.23
2022-08-26T20:10:20.844Z,54.41
2022-08-26T20:13:05.448Z,54.19
2022-08-26T20:15:53.607Z,55.07
2022-08-26T20:18:59.092Z,55.32
2022-08-26T20:21:45.040Z,55.16
2022-08-26T20:24:31.807Z,54.70
2022-08-26T20:27:17.400Z,54.95
2022-08-26T20:30:03.993Z,53.91
2022-08-26T20:32:49.078Z,54.85
2022-08-26T20:35:33.898Z,55.02
2022-08-26T20:38:21.530Z,55.00
2022-08-26T20:41:07.242Z,54.50
2022-08-26T20:43:52.977Z,54.97
2022-08-26T20:46:38.569Z,55.71
2022-08-26T20:49:23.464Z,55.44
2022-08-26T20:52:08.461Z,55.95
2022-08-26T20:54:53.399Z,57.21
2022-08-26T20:57:38.538Z,56.44
2022-08-26T21:00:26.401Z,56.25
2022-08-26T21:03:12.875Z,56.80
2022-08-26T21:05:58.247Z,56.85
2022-08-26T21:08:43.483Z,56.39
2022-08-26T21:11:29.977Z,56.12
2022-08-26T21:14:16.928Z,55.65
2022-08-26T21:17:03.655Z,55.64
2022-08-26T21:19:48.748Z,56.50
2022-08-26T21:22:33.992Z,56.38
2022-08-26T21:25:19.418Z,56.60
2022-08-26T21:28:05.244Z,56.72
2022-08-26T21:30:50.157Z,56.83
2022-08-26T21:33:35.461Z,56.96
2022-08-26T21:36:21.082Z,56.64
2022-08-26T21:39:11.282Z,56.46
2022-08-26T21:41:57.374Z,56.50
2022-08-26T21:44:44.222Z,56.02
2022-08-26T21:47:31.962Z,55.09
2022-08-26T21:50:16.990Z,54.09
2022-08-26T21:53:02.147Z,54.80
2022-08-26T21:55:47.144Z,54.92
2022-08-26T21:58:32.948Z,54.87
2022-08-26T22:01:21.101Z,55.15
2022-08-26T22:04:08.044Z,56.28
2022-08-26T22:06:56.993Z,56.16
2022-08-26T22:09:42.190Z,57.34
2022-08-26T22:12:29.584Z,58.30
2022-08-26T22:15:15.205Z,59.66
2022-08-26T22:18:03.246Z,60.04
2022-08-26T22:20:48.087Z,60.31
2022-08-26T22:23:34.907Z,60.81
2022-08-26T22:26:25.767Z,60.31
2022-08-26T22:29:11.517Z,61.27
2022-08-26T22:31:56.647Z,61.10
2022-08-26T22:34:41.741Z,61.25
2022-08-26T22:37:26.635Z,61.04
2022-08-26T22:40:12.924Z,61.00
2022-08-26T22:43:00.123Z,61.91
2022-08-26T22:45:47.629Z,61.34
2022-08-26T22:48:32.680Z,60.32
2022-08-26T22:51:17.851Z,58.73
2022-08-26T22:54:02.981Z,59.19
2022-08-26T22:56:48.432Z,59.05
2022-08-26T22:59:33.253Z,58.94
2022-08-26T23:02:18.728Z,58.31
2022-08-26T23:05:04.069Z,58.25
2022-08-26T23:07:49.477Z,58.28
2022-08-26T23:10:36.480Z,57.38
2022-08-26T23:13:21.455Z,57.82
2022-08-26T23:16:09.512Z,57.73
2022-08-26T23:18:54.442Z,57.70
2022-08-26T23:21:39.737Z,57.85
2022-08-26T23:24:24.496Z,58.05
2022-08-26T23:27:09.707Z,57.63
2022-08-26T23:29:54.770Z,58.41
2022-08-26T23:32:39.539Z,58.21
2022-08-26T23:35:25.663Z,58.78
2022-08-26T23:38:11.804Z,59.28
2022-08-26T23:40:58.991Z,59.52
2022-08-26T23:43:44.512Z,59.29
2022-08-26T23:46:29.761Z,60.67
2022-08-26T23:49:14.813Z,60.95
2022-08-26T23:52:17.889Z,61.33
2022-08-26T23:55:04.174Z,62.35
2022-08-26T23:57:49.455Z,62.38
